createdAt,value
2022-09-23T00:00:06.686Z,9.462981
2022-09-23T00:01:06.607Z,9.462983
2022-09-23T00:02:06.718Z,9.463041
2022-09-23T00:03:06.560Z,9.463056
2022-09-23T00:04:06.577Z,9.463002
2022-09-23T00:05:06.590Z,9.463034
2022-09-23T00:06:06.544Z,9.463009
2022-09-23T00:07:06.535Z,9.462986
2022-09-23T00:08:06.542Z,9.463018
2022-09-23T00:09:06.650Z,9.462984
2022-09-23T00:10:06.526Z,9.463033
2022-09-23T00:11:06.567Z,9.463035
2022-09-23T00:12:09.063Z,9.462975
2022-09-23T00:13:06.499Z,9.463037
2022-09-23T00:14:06.499Z,9.463032
2022-09-23T00:15:06.481Z,9.462974
2022-09-23T00:16:06.484Z,9.463013
2022-09-23T00:17:06.577Z,9.462975
2022-09-23T00:18:06.468Z,9.462896
2022-09-23T00:19:06.467Z,9.462849
2022-09-23T00:20:06.479Z,9.462902
2022-09-23T00:21:06.474Z,9.463011
2022-09-23T00:22:06.457Z,9.463110
2022-09-23T00:23:06.442Z,9.462998
2022-09-23T00:24:06.567Z,9.463009
2022-09-23T00:25:06.472Z,9.463077
2022-09-23T00:26:08.163Z,9.463070
2022-09-23T00:27:06.416Z,9.463109
2022-09-23T00:28:06.406Z,9.463058
2022-09-23T00:29:06.400Z,9.463080
2022-09-23T00:30:06.386Z,9.463084
2022-09-23T00:31:06.476Z,9.463048
2022-09-23T00:32:06.971Z,9.462918
2022-09-23T00:33:06.364Z,9.463045
2022-09-23T00:34:06.367Z,9.462948
2022-09-23T00:35:06.352Z,9.462950
2022-09-23T00:36:06.356Z,9.463031
2022-09-23T00:37:07.190Z,9.463058
2022-09-23T00:38:06.355Z,9.462982
2022-09-23T00:39:06.469Z,9.463025
2022-09-23T00:40:06.402Z,9.462967
2022-09-23T00:41:06.323Z,9.462988
2022-09-23T00:42:06.316Z,9.463055
2022-09-23T00:43:06.321Z,9.463024
2022-09-23T00:44:06.604Z,9.463013
2022-09-23T00:45:06.286Z,9.463042
2022-09-23T00:46:06.402Z,9.463035
2022-09-23T00:47:06.272Z,9.462961
2022-09-23T00:48:06.305Z,9.462971
2022-09-23T00:49:06.589Z,9.462996
2022-09-23T00:50:06.270Z,9.462977
2022-09-23T00:51:06.251Z,9.462933
2022-09-23T00:52:06.245Z,9.462982
2022-09-23T00:53:06.259Z,9.463014
2022-09-23T00:54:06.438Z,9.463013
2022-09-23T00:55:06.270Z,9.463009
2022-09-23T00:56:06.221Z,9.462986
2022-09-23T00:57:06.219Z,9.462994
2022-09-23T00:58:06.204Z,9.462991
2022-09-23T00:59:06.206Z,9.462984
2022-09-23T01:00:06.366Z,9.462991
2022-09-23T01:01:06.271Z,9.463016
2022-09-23T01:02:06.207Z,9.463007
2022-09-23T01:03:06.171Z,9.463022
2022-09-23T01:04:06.179Z,9.462998
2022-09-23T01:05:06.166Z,9.462966
2022-09-23T01:06:06.586Z,9.462986
2022-09-23T01:07:06.172Z,9.462980
2022-09-23T01:08:06.146Z,9.462976
2022-09-23T01:09:06.287Z,9.462995
2022-09-23T01:10:06.141Z,9.462957
2022-09-23T01:11:06.133Z,9.462995
2022-09-23T01:12:06.141Z,9.463027
2022-09-23T01:13:06.112Z,9.463006
2022-09-23T01:14:06.119Z,9.462979
2022-09-23T01:15:06.097Z,9.462988
2022-09-23T01:16:06.577Z,9.462971
2022-09-23T01:17:06.174Z,9.462990
2022-09-23T01:18:06.361Z,9.462988
2022-09-23T01:19:06.081Z,9.463001
2022-09-23T01:20:06.066Z,9.463027
2022-09-23T01:21:06.060Z,9.462992
2022-09-23T01:22:07.164Z,9.462968
2022-09-23T01:23:06.043Z,9.462962
2022-09-23T01:24:06.171Z,9.462951
2022-09-23T01:25:06.062Z,9.462976
2022-09-23T01:26:06.024Z,9.462992
2022-09-23T01:27:06.020Z,9.462996
2022-09-23T01:28:06.015Z,9.462985
2022-09-23T01:29:06.009Z,9.463015
2022-09-23T01:30:06.010Z,9.463017
2022-09-23T01:31:06.088Z,9.462991
2022-09-23T01:32:05.983Z,9.462984
2022-09-23T01:33:05.976Z,9.462959
2022-09-23T01:34:06.020Z,9.462954
2022-09-23T01:35:07.088Z,9.462958
2022-09-23T01:36:05.967Z,9.462987
2022-09-23T01:37:05.957Z,9.462954
2022-09-23T01:38:05.945Z,9.462955
2022-09-23T01:39:06.000Z,9.462920
2022-09-23T01:40:06.862Z,9.462973
2022-09-23T01:41:05.965Z,9.463015
2022-09-23T01:42:06.368Z,9.463038
2022-09-23T01:43:06.055Z,9.463052
2022-09-23T01:44:05.913Z,9.463042
2022-09-23T01:45:05.974Z,9.463006
2022-09-23T01:46:05.907Z,9.463023
2022-09-23T01:47:05.881Z,9.462957
2022-09-23T01:48:05.981Z,9.463004
2022-09-23T01:49:05.978Z,9.462916
2022-09-23T01:50:05.861Z,9.462920
2022-09-23T01:51:05.859Z,9.462966
2022-09-23T01:52:05.855Z,9.463018
2022-09-23T01:53:05.852Z,9.462986
2022-09-23T01:54:05.863Z,9.462993
2022-09-23T01:55:05.837Z,9.462982
2022-09-23T01:56:05.824Z,9.462984
2022-09-23T01:57:05.833Z,9.462934
2022-09-23T01:58:05.808Z,9.463010
2022-09-23T01:59:06.256Z,9.463024
2022-09-23T02:00:05.790Z,9.463058
2022-09-23T02:01:06.005Z,9.463008
2022-09-23T02:02:05.876Z,9.463072
2022-09-23T02:03:05.780Z,9.463021
2022-09-23T02:04:05.921Z,9.462994
2022-09-23T02:05:05.768Z,9.462998
2022-09-23T02:06:05.763Z,9.462826
2022-09-23T02:07:05.758Z,9.462895
2022-09-23T02:08:06.326Z,9.463116
2022-09-23T02:09:05.742Z,9.462990
2022-09-23T02:10:13.320Z,9.463006
2022-09-23T02:11:05.726Z,9.463092
2022-09-23T02:12:05.730Z,9.462785
2022-09-23T02:13:05.737Z,9.462805
2022-09-23T02:14:05.723Z,9.462990
2022-09-23T02:15:05.688Z,9.462964
2022-09-23T02:16:05.688Z,9.463032
2022-09-23T02:17:05.682Z,9.462994
2022-09-23T02:18:05.675Z,9.462951
2022-09-23T02:19:05.718Z,9.463025
2022-09-23T02:20:05.680Z,9.462979
2022-09-23T02:21:05.664Z,9.462991
2022-09-23T02:22:06.065Z,9.463045
2022-09-23T02:23:05.635Z,9.463117
2022-09-23T02:24:05.648Z,9.463112
2022-09-23T02:25:05.622Z,9.463136
2022-09-23T02:26:05.652Z,9.463037
2022-09-23T02:27:05.622Z,9.463039
2022-09-23T02:28:05.608Z,9.463038
2022-09-23T02:29:05.938Z,9.463065
2022-09-23T02:30:05.590Z,9.463010
2022-09-23T02:31:05.590Z,9.463011
2022-09-23T02:32:05.640Z,9.462986
2022-09-23T02:33:05.578Z,9.463003
2022-09-23T02:34:05.590Z,9.463091
2022-09-23T02:35:05.568Z,9.463033
2022-09-23T02:36:05.561Z,9.463029
2022-09-23T02:37:05.547Z,9.462964
2022-09-23T02:38:05.542Z,9.462952
2022-09-23T02:39:05.540Z,9.462967
2022-09-23T02:40:05.588Z,9.463044
2022-09-23T02:41:05.545Z,9.462955
2022-09-23T02:42:05.524Z,9.462984
2022-09-23T02:43:05.518Z,9.463047
2022-09-23T02:44:05.506Z,9.463027
2022-09-23T02:45:05.541Z,9.463027
2022-09-23T02:46:05.539Z,9.463063
2022-09-23T02:47:05.513Z,9.462945
2022-09-23T02:48:05.475Z,9.463004
2022-09-23T02:49:05.463Z,9.463059
2022-09-23T02:50:05.467Z,9.463033
2022-09-23T02:51:05.492Z,9.463035
2022-09-23T02:52:05.474Z,9.463050
2022-09-23T02:53:05.446Z,9.463098
2022-09-23T02:54:05.498Z,9.463048
2022-09-23T02:55:05.440Z,9.463075
2022-09-23T02:56:05.426Z,9.463026
2022-09-23T02:57:05.437Z,9.463017
2022-09-23T02:58:05.415Z,9.463050
2022-09-23T02:59:05.449Z,9.463131
2022-09-23T03:00:05.407Z,9.463107
2022-09-23T03:01:05.455Z,9.463100
2022-09-23T03:02:05.589Z,9.462935
2022-09-23T03:03:05.434Z,9.462888
2022-09-23T03:04:05.368Z,9.462956
2022-09-23T03:05:05.377Z,9.462923
2022-09-23T03:06:05.361Z,9.463018
2022-09-23T03:07:05.346Z,9.462931
2022-09-23T03:08:05.373Z,9.463007
2022-09-23T03:09:05.580Z,9.463056
2022-09-23T03:10:05.327Z,9.462971
2022-09-23T03:11:05.338Z,9.463008
2022-09-23T03:12:05.318Z,9.463019
2022-09-23T03:13:05.315Z,9.463008
2022-09-23T03:14:05.749Z,9.462973
2022-09-23T03:15:05.293Z,9.462937
2022-09-23T03:16:05.395Z,9.463059
2022-09-23T03:17:05.325Z,9.462951
2022-09-23T03:18:05.583Z,9.462902
2022-09-23T03:19:05.274Z,9.462963
2022-09-23T03:20:06.061Z,9.462904
2022-09-23T03:21:05.252Z,9.462872
2022-09-23T03:22:05.252Z,9.462959
2022-09-23T03:23:05.244Z,9.462986
2022-09-23T03:24:05.311Z,9.463051
2022-09-23T03:25:05.251Z,9.462999
2022-09-23T03:26:05.231Z,9.463078
2022-09-23T03:27:05.211Z,9.462991
2022-09-23T03:28:05.212Z,9.462935
2022-09-23T03:29:05.198Z,9.462873
2022-09-23T03:30:05.251Z,9.463000
2022-09-23T03:31:05.762Z,9.463089
2022-09-23T03:32:05.233Z,9.463111
2022-09-23T03:33:05.215Z,9.463018
2022-09-23T03:34:05.167Z,9.462954
2022-09-23T03:35:05.193Z,9.462963
2022-09-23T03:36:05.156Z,9.463001
2022-09-23T03:37:05.196Z,9.463071
2022-09-23T03:38:05.149Z,9.463082
2022-09-23T03:39:05.273Z,9.463027
2022-09-23T03:40:06.421Z,9.462917
2022-09-23T03:41:05.124Z,9.462985
2022-09-23T03:42:05.114Z,9.462940
2022-09-23T03:43:05.146Z,9.462922
2022-09-23T03:44:05.105Z,9.462982
2022-09-23T03:45:05.101Z,9.463042
2022-09-23T03:46:05.868Z,9.463065
2022-09-23T03:47:05.079Z,9.462983
2022-09-23T03:48:05.073Z,9.462962
2022-09-23T03:49:05.190Z,9.463015
2022-09-23T03:50:05.067Z,9.463051
2022-09-23T03:51:05.241Z,9.463021
2022-09-23T03:52:05.054Z,9.463000
2022-09-23T03:53:05.121Z,9.462972
2022-09-23T03:54:05.036Z,9.462979
2022-09-23T03:55:05.042Z,9.463004
2022-09-23T03:56:05.026Z,9.462964
2022-09-23T03:57:05.120Z,9.462998
2022-09-23T03:58:05.024Z,9.463022
2022-09-23T03:59:05.046Z,9.463008
2022-09-23T04:00:05.009Z,9.462987
2022-09-23T04:01:05.178Z,9.463021
2022-09-23T04:02:05.118Z,9.463009
2022-09-23T04:03:09.505Z,9.463005
2022-09-23T04:04:06.545Z,9.463013
2022-09-23T04:05:04.993Z,9.462986
2022-09-23T04:06:04.961Z,9.462947
2022-09-23T04:07:04.952Z,9.462973
2022-09-23T04:08:05.400Z,9.463049
2022-09-23T04:09:04.951Z,9.463063
2022-09-23T04:10:05.056Z,9.463064
2022-09-23T04:11:04.927Z,9.463017
2022-09-23T04:12:04.922Z,9.463033
2022-09-23T04:13:04.937Z,9.463000
2022-09-23T04:14:04.919Z,9.463011
2022-09-23T04:15:04.899Z,9.462993
2022-09-23T04:16:04.968Z,9.463021
2022-09-23T04:17:05.333Z,9.463041
2022-09-23T04:18:06.030Z,9.463082
2022-09-23T04:19:05.195Z,9.462997
2022-09-23T04:20:04.872Z,9.463004
2022-09-23T04:21:04.894Z,9.462986
2022-09-23T04:22:05.335Z,9.462964
2022-09-23T04:23:04.851Z,9.462984
2022-09-23T04:24:04.843Z,9.462853
2022-09-23T04:25:04.904Z,9.462966
2022-09-23T04:26:04.838Z,9.462940
2022-09-23T04:27:04.819Z,9.462932
2022-09-23T04:28:04.838Z,9.463003
2022-09-23T04:29:04.808Z,9.462982
2022-09-23T04:30:05.051Z,9.462951
2022-09-23T04:31:04.837Z,9.462970
2022-09-23T04:32:04.801Z,9.462959
2022-09-23T04:33:04.941Z,9.462963
2022-09-23T04:34:04.804Z,9.462973
2022-09-23T04:35:04.791Z,9.462958
2022-09-23T04:36:05.043Z,9.462981
2022-09-23T04:37:04.786Z,9.462998
2022-09-23T04:38:04.771Z,9.463006
2022-09-23T04:39:04.740Z,9.462983
2022-09-23T04:40:04.841Z,9.463030
2022-09-23T04:41:04.731Z,9.463000
2022-09-23T04:42:04.729Z,9.463022
2022-09-23T04:43:04.760Z,9.463027
2022-09-23T04:44:04.715Z,9.463033
2022-09-23T04:45:04.719Z,9.463040
2022-09-23T04:46:04.948Z,9.462972
2022-09-23T04:47:04.778Z,9.462968
2022-09-23T04:48:04.705Z,9.462981
2022-09-23T04:49:04.705Z,9.463033
2022-09-23T04:50:04.669Z,9.463064
2022-09-23T04:51:04.672Z,9.463033
2022-09-23T04:52:05.121Z,9.463036
2022-09-23T04:53:04.674Z,9.463003
2022-09-23T04:54:04.667Z,9.463022
2022-09-23T04:55:09.135Z,9.463046
2022-09-23T04:56:05.650Z,9.463047
2022-09-23T04:57:04.626Z,9.463016
2022-09-23T04:58:04.645Z,9.462991
2022-09-23T04:59:04.647Z,9.462990
2022-09-23T05:00:04.628Z,9.462946
2022-09-23T05:01:05.479Z,9.462982
2022-09-23T05:02:05.123Z,9.462939
2022-09-23T05:03:04.597Z,9.463017
2022-09-23T05:04:04.577Z,9.462974
2022-09-23T05:05:04.588Z,9.463042
2022-09-23T05:06:04.568Z,9.462955
2022-09-23T05:07:04.551Z,9.462983
2022-09-23T05:08:04.569Z,9.462990
2022-09-23T05:09:04.562Z,9.462967
2022-09-23T05:10:05.224Z,9.462955
2022-09-23T05:11:04.532Z,9.462983
2022-09-23T05:12:05.531Z,9.463006
2022-09-23T05:13:04.520Z,9.463049
2022-09-23T05:14:04.517Z,9.463021
2022-09-23T05:15:04.529Z,9.463057
2022-09-23T05:16:04.604Z,9.463021
2022-09-23T05:17:05.835Z,9.463058
2022-09-23T05:18:04.505Z,9.463057
2022-09-23T05:19:04.476Z,9.463036
2022-09-23T05:20:04.482Z,9.463004
2022-09-23T05:21:04.473Z,9.463006
2022-09-23T05:22:04.475Z,9.463053
2022-09-23T05:23:04.508Z,9.463035
2022-09-23T05:24:04.600Z,9.463042
2022-09-23T05:25:04.469Z,9.462985
2022-09-23T05:26:04.430Z,9.462980
2022-09-23T05:27:04.430Z,9.463035
2022-09-23T05:28:04.418Z,9.463063
2022-09-23T05:29:04.458Z,9.462890
2022-09-23T05:30:04.439Z,9.462960
2022-09-23T05:31:04.502Z,9.462994
2022-09-23T05:32:04.526Z,9.462961
2022-09-23T05:33:04.394Z,9.463132
2022-09-23T05:34:04.380Z,9.462963
2022-09-23T05:35:04.386Z,9.462922
2022-09-23T05:36:04.369Z,9.462950
2022-09-23T05:37:04.363Z,9.462890
2022-09-23T05:38:04.373Z,9.463039
2022-09-23T05:39:04.354Z,9.463061
2022-09-23T05:40:04.434Z,9.463096
2022-09-23T05:41:04.359Z,9.463175
2022-09-23T05:42:04.378Z,9.462923
2022-09-23T05:43:04.327Z,9.462996
2022-09-23T05:44:04.334Z,9.463024
2022-09-23T05:45:04.317Z,9.462946
2022-09-23T05:46:08.006Z,9.463086
2022-09-23T05:47:04.352Z,9.463169
2022-09-23T05:48:04.314Z,9.462992
2022-09-23T05:49:04.536Z,9.463146
2022-09-23T05:50:04.914Z,9.463146
2022-09-23T05:51:04.328Z,9.463068
2022-09-23T05:52:04.275Z,9.463166
2022-09-23T05:53:04.264Z,9.462687
2022-09-23T05:54:04.541Z,9.462502
2022-09-23T05:55:04.329Z,9.462477
2022-09-23T05:57:05.084Z,9.462973
2022-09-23T05:58:04.633Z,9.462924
2022-09-23T05:59:04.224Z,9.462770
2022-09-23T06:00:04.206Z,9.462912
2022-09-23T06:01:04.209Z,9.462804
2022-09-23T06:02:04.289Z,9.462708
2022-09-23T06:03:04.238Z,9.462851
2022-09-23T06:04:04.203Z,9.462628
2022-09-23T06:05:04.184Z,9.462599
2022-09-23T06:06:04.189Z,9.462788
2022-09-23T06:07:04.194Z,9.462765
2022-09-23T06:08:04.172Z,9.462849
2022-09-23T06:09:04.869Z,9.462809
2022-09-23T06:10:04.168Z,9.462790
2022-09-23T06:11:04.142Z,9.462712
2022-09-23T06:12:04.134Z,9.462731
2022-09-23T06:13:04.168Z,9.462763
2022-09-23T06:14:04.294Z,9.462736
2022-09-23T06:15:04.139Z,9.462937
2022-09-23T06:16:05.390Z,9.463015
2022-09-23T06:17:04.095Z,9.462881
2022-09-23T06:18:04.144Z,9.462909
2022-09-23T06:19:05.601Z,9.462976
2022-09-23T06:20:04.082Z,9.462987
2022-09-23T06:21:04.074Z,9.463054
2022-09-23T06:22:04.087Z,9.463042
2022-09-23T06:23:07.265Z,9.463005
2022-09-23T06:24:05.257Z,9.463007
2022-09-23T06:25:04.049Z,9.462970
2022-09-23T06:26:04.149Z,9.462954
2022-09-23T06:27:04.049Z,9.462985
2022-09-23T06:28:04.066Z,9.463035
2022-09-23T06:29:04.039Z,9.463009
2022-09-23T06:30:04.020Z,9.463046
2022-09-23T06:31:04.055Z,9.462935
2022-09-23T06:32:04.422Z,9.463039
2022-09-23T06:33:03.998Z,9.463033
2022-09-23T06:34:11.817Z,9.462976
2022-09-23T06:35:05.013Z,9.463111
2022-09-23T06:36:03.971Z,9.463215
2022-09-23T06:37:16.271Z,9.463112
2022-09-23T06:38:04.952Z,9.463147
2022-09-23T06:39:03.945Z,9.463183
2022-09-23T06:40:04.038Z,9.463102
2022-09-23T06:41:03.934Z,9.463031
2022-09-23T06:42:03.920Z,9.462770
2022-09-23T06:43:03.976Z,9.462712
2022-09-23T06:44:03.915Z,9.462716
2022-09-23T06:45:03.947Z,9.462831
2022-09-23T06:46:04.112Z,9.462897
2022-09-23T06:47:03.917Z,9.463054
2022-09-23T06:48:03.903Z,9.462943
2022-09-23T06:49:03.919Z,9.462882
2022-09-23T06:50:03.878Z,9.462844
2022-09-23T06:51:03.858Z,9.462776
2022-09-23T06:52:03.860Z,9.462736
2022-09-23T06:53:03.853Z,9.462708
2022-09-23T06:54:03.842Z,9.462962
2022-09-23T06:55:03.851Z,9.462954
2022-09-23T06:56:03.822Z,9.462941
2022-09-23T06:57:03.817Z,9.462923
2022-09-23T06:58:03.816Z,9.462935
2022-09-23T06:59:03.830Z,9.462933
2022-09-23T07:00:03.797Z,9.462935
2022-09-23T07:01:03.834Z,9.462923
2022-09-23T07:02:03.884Z,9.462961
2022-09-23T07:03:03.864Z,9.462951
2022-09-23T07:04:03.777Z,9.462951
2022-09-23T07:05:03.821Z,9.462998
2022-09-23T07:06:03.761Z,9.462965
2022-09-23T07:07:03.815Z,9.462968
2022-09-23T07:08:03.746Z,9.462987
2022-09-23T07:09:03.733Z,9.462939
2022-09-23T07:10:03.732Z,9.462986
2022-09-23T07:11:03.739Z,9.462978
2022-09-23T07:12:03.730Z,9.462961
2022-09-23T07:13:03.730Z,9.462967
2022-09-23T07:14:03.701Z,9.462958
2022-09-23T07:15:03.701Z,9.462966
2022-09-23T07:16:04.178Z,9.462973
2022-09-23T07:17:03.706Z,9.462960
2022-09-23T07:18:03.690Z,9.462940
2022-09-23T07:19:03.673Z,9.462967
2022-09-23T07:20:03.683Z,9.463012
2022-09-23T07:21:03.661Z,9.462976
2022-09-23T07:22:03.709Z,9.462972
2022-09-23T07:23:03.644Z,9.462962
2022-09-23T07:24:03.642Z,9.462954
2022-09-23T07:25:03.632Z,9.462979
2022-09-23T07:26:03.644Z,9.462982
2022-09-23T07:27:03.614Z,9.462974
2022-09-23T07:28:03.640Z,9.462966
2022-09-23T07:29:03.605Z,9.462963
2022-09-23T07:30:03.658Z,9.462965
2022-09-23T07:31:03.627Z,9.462957
2022-09-23T07:32:13.319Z,9.462955
2022-09-23T07:33:14.645Z,9.462957
2022-09-23T07:34:04.659Z,9.462979
2022-09-23T07:35:03.579Z,9.463014
2022-09-23T07:36:03.549Z,9.463026
2022-09-23T07:37:03.704Z,9.463014
2022-09-23T07:38:03.544Z,9.463017
2022-09-23T07:39:03.595Z,9.463005
2022-09-23T07:40:03.648Z,9.463004
2022-09-23T07:41:03.515Z,9.463031
2022-09-23T07:42:03.562Z,9.463010
2022-09-23T07:43:03.506Z,9.462976
2022-09-23T07:44:03.506Z,9.462973
2022-09-23T07:45:03.478Z,9.462968
2022-09-23T07:46:03.622Z,9.462975
2022-09-23T07:47:03.501Z,9.462963
2022-09-23T07:48:03.459Z,9.462941
2022-09-23T07:49:03.475Z,9.462958
2022-09-23T07:50:03.456Z,9.462983
2022-09-23T07:51:03.433Z,9.462978
2022-09-23T07:52:03.765Z,9.462972
2022-09-23T07:53:03.435Z,9.462971
2022-09-23T07:54:03.428Z,9.462988
2022-09-23T07:55:03.420Z,9.463017
2022-09-23T07:56:03.412Z,9.462962
2022-09-23T07:57:03.414Z,9.463007
2022-09-23T07:58:03.402Z,9.463049
2022-09-23T07:59:03.494Z,9.463023
2022-09-23T08:00:03.384Z,9.462999
2022-09-23T08:01:03.380Z,9.462930
2022-09-23T08:02:03.420Z,9.462907
2022-09-23T08:03:03.441Z,9.463050
2022-09-23T08:04:03.373Z,9.463035
2022-09-23T08:05:03.486Z,9.462974
2022-09-23T08:06:03.340Z,9.462981
2022-09-23T08:07:03.395Z,9.462977
2022-09-23T08:08:03.317Z,9.463007
2022-09-23T08:09:03.393Z,9.462943
2022-09-23T08:10:03.327Z,9.463020
2022-09-23T08:11:10.360Z,9.462992
2022-09-23T08:12:03.298Z,9.462969
2022-09-23T08:13:03.336Z,9.462970
2022-09-23T08:14:03.300Z,9.463020
2022-09-23T08:15:03.277Z,9.462996
2022-09-23T08:16:03.351Z,9.463013
2022-09-23T08:17:03.264Z,9.462968
2022-09-23T08:18:03.265Z,9.463005
2022-09-23T08:20:03.247Z,9.463058
2022-09-23T08:21:03.268Z,9.463011
2022-09-23T08:22:03.244Z,9.463008
2022-09-23T08:23:03.464Z,9.463019
2022-09-23T08:24:03.353Z,9.463015
2022-09-23T08:25:03.711Z,9.462999
2022-09-23T08:26:03.206Z,9.463011
2022-09-23T08:27:03.193Z,9.463027
2022-09-23T08:28:03.240Z,9.462989
2022-09-23T08:29:03.184Z,9.462990
2022-09-23T08:30:03.172Z,9.463006
2022-09-23T08:31:03.315Z,9.462996
2022-09-23T08:32:03.162Z,9.463021
2022-09-23T08:33:03.163Z,9.463032
2022-09-23T08:34:03.308Z,9.463019
2022-09-23T08:35:03.176Z,9.463036
2022-09-23T08:36:03.575Z,9.462990
2022-09-23T08:37:03.192Z,9.463070
2022-09-23T08:38:03.180Z,9.463022
2022-09-23T08:39:03.115Z,9.463060
2022-09-23T08:40:03.110Z,9.463029
2022-09-23T08:41:03.132Z,9.463011
2022-09-23T08:42:03.087Z,9.463003
2022-09-23T08:43:03.091Z,9.462999
2022-09-23T08:44:03.215Z,9.462998
2022-09-23T08:45:03.081Z,9.463021
2022-09-23T08:46:03.117Z,9.462973
2022-09-23T08:47:03.094Z,9.462914
2022-09-23T08:48:03.054Z,9.462919
2022-09-23T08:49:03.060Z,9.462977
2022-09-23T08:50:03.087Z,9.462975
2022-09-23T08:51:03.033Z,9.462981
2022-09-23T08:52:03.057Z,9.462953
2022-09-23T08:53:03.048Z,9.462983
2022-09-23T08:54:03.102Z,9.462973
2022-09-23T08:55:03.014Z,9.462990
2022-09-23T08:56:03.000Z,9.463032
2022-09-23T08:57:03.019Z,9.462959
2022-09-23T08:58:26.759Z,9.462944
2022-09-23T08:59:03.985Z,9.463016
2022-09-23T09:00:02.985Z,9.462986
2022-09-23T09:01:03.013Z,9.463007
2022-09-23T09:02:02.970Z,9.463017
2022-09-23T09:03:02.991Z,9.462996
2022-09-23T09:04:23.954Z,9.463022
2022-09-23T09:05:02.943Z,9.462997
2022-09-23T09:06:02.960Z,9.463005
2022-09-23T09:07:24.676Z,9.462954
2022-09-23T09:08:04.005Z,9.462935
2022-09-23T09:09:03.018Z,9.462887
2022-09-23T09:10:02.914Z,9.463002
2022-09-23T09:11:02.903Z,9.462998
2022-09-23T09:12:03.329Z,9.462919
2022-09-23T09:13:02.890Z,9.462911
2022-09-23T09:14:02.910Z,9.462977
2022-09-23T09:15:02.886Z,9.462922
2022-09-23T09:16:02.926Z,9.462909
2022-09-23T09:17:02.941Z,9.462914
2022-09-23T09:18:02.887Z,9.462966
2022-09-23T09:19:02.911Z,9.462960
2022-09-23T09:20:02.859Z,9.462966
2022-09-23T09:21:03.175Z,9.462878
2022-09-23T09:22:02.824Z,9.462910
2022-09-23T09:23:02.825Z,9.462926
2022-09-23T09:24:02.938Z,9.462907
2022-09-23T09:25:02.945Z,9.462920
2022-09-23T09:26:02.805Z,9.463003
2022-09-23T09:27:02.795Z,9.462976
2022-09-23T09:28:02.837Z,9.462923
2022-09-23T09:29:17.159Z,9.462937
2022-09-23T09:30:03.780Z,9.462943
2022-09-23T09:31:02.933Z,9.462957
2022-09-23T09:32:02.763Z,9.462942
2022-09-23T09:33:02.771Z,9.462920
2022-09-23T09:34:02.788Z,9.462941
2022-09-23T09:35:02.751Z,9.462966
2022-09-23T09:36:02.727Z,9.462952
2022-09-23T09:37:06.845Z,9.462960
2022-09-23T09:38:02.810Z,9.462976
2022-09-23T09:39:03.052Z,9.462950
2022-09-23T09:40:02.710Z,9.462973
2022-09-23T09:41:02.920Z,9.463024
2022-09-23T09:42:02.687Z,9.462972
2022-09-23T09:43:02.692Z,9.462977
2022-09-23T09:44:02.740Z,9.462881
2022-09-23T09:45:02.676Z,9.462906
2022-09-23T09:46:02.660Z,9.462967
2022-09-23T09:47:03.622Z,9.462955
2022-09-23T09:48:02.697Z,9.462987
2022-09-23T09:49:02.761Z,9.463032
2022-09-23T09:50:02.628Z,9.462976
2022-09-23T09:51:02.626Z,9.463063
2022-09-23T09:52:02.777Z,9.462974
2022-09-23T09:53:02.585Z,9.462970
2022-09-23T09:54:02.559Z,9.462961
2022-09-23T09:55:02.596Z,9.462968
2022-09-23T09:56:05.310Z,9.463048
2022-09-23T09:57:02.562Z,9.463209
2022-09-23T09:58:02.607Z,9.462956
2022-09-23T09:59:02.572Z,9.462919
2022-09-23T10:00:02.797Z,9.462980
2022-09-23T10:01:02.550Z,9.462963
2022-09-23T10:02:02.484Z,9.462987
2022-09-23T10:03:02.478Z,9.462983
2022-09-23T10:04:02.464Z,9.462924
2022-09-23T10:05:02.470Z,9.463039
2022-09-23T10:06:03.099Z,9.463143
2022-09-23T10:07:02.440Z,9.463170
2022-09-23T10:08:02.449Z,9.463097
2022-09-23T10:09:02.479Z,9.463052
2022-09-23T10:10:15.915Z,9.462939
2022-09-23T10:11:04.799Z,9.462957
2022-09-23T10:12:02.415Z,9.462907
2022-09-23T10:13:02.430Z,9.463061
2022-09-23T10:14:02.396Z,9.463369
2022-09-23T10:15:02.420Z,9.463037
2022-09-23T10:16:02.378Z,9.462930
2022-09-23T10:17:03.129Z,9.462876
2022-09-23T10:18:02.382Z,9.462857
2022-09-23T10:19:02.412Z,9.462578
2022-09-23T10:20:02.365Z,9.462559
2022-09-23T10:21:02.354Z,9.462783
2022-09-23T10:22:02.343Z,9.463019
2022-09-23T10:23:02.372Z,9.463014
2022-09-23T10:24:02.325Z,9.463012
2022-09-23T10:25:02.330Z,9.463005
2022-09-23T10:26:02.320Z,9.462972
2022-09-23T10:27:02.307Z,9.463018
2022-09-23T10:28:06.080Z,9.463049
2022-09-23T10:29:04.416Z,9.463069
2022-09-23T10:30:02.288Z,9.462954
2022-09-23T10:31:02.363Z,9.462908
2022-09-23T10:32:02.275Z,9.462946
2022-09-23T10:33:02.276Z,9.462963
2022-09-23T10:34:02.267Z,9.463093
2022-09-23T10:35:02.901Z,9.463054
2022-09-23T10:36:02.276Z,9.463083
2022-09-23T10:37:02.237Z,9.463043
2022-09-23T10:38:02.246Z,9.463007
2022-09-23T10:39:02.364Z,9.463041
2022-09-23T10:40:02.222Z,9.463019
2022-09-23T10:41:03.070Z,9.463037
2022-09-23T10:42:02.218Z,9.462959
2022-09-23T10:43:02.205Z,9.462908
2022-09-23T10:44:02.195Z,9.463014
2022-09-23T10:45:02.258Z,9.462942
2022-09-23T10:46:02.247Z,9.463018
2022-09-23T10:47:02.605Z,9.463007
2022-09-23T10:48:02.167Z,9.462978
2022-09-23T10:49:02.158Z,9.462998
2022-09-23T10:50:02.148Z,9.462970
2022-09-23T10:51:02.149Z,9.463012
2022-09-23T10:52:02.403Z,9.463022
2022-09-23T10:53:02.141Z,9.462995
2022-09-23T10:54:02.133Z,9.463003
2022-09-23T10:55:02.122Z,9.463011
2022-09-23T10:56:02.109Z,9.462996
2022-09-23T10:57:02.136Z,9.463077
2022-09-23T10:58:02.132Z,9.462983
2022-09-23T10:59:02.113Z,9.463024
2022-09-23T11:00:02.089Z,9.463002
2022-09-23T11:01:02.143Z,9.463053
2022-09-23T11:02:02.121Z,9.462984
2022-09-23T11:03:02.957Z,9.462997
2022-09-23T11:04:02.181Z,9.463057
2022-09-23T11:05:02.110Z,9.463163
2022-09-23T11:06:02.848Z,9.463005
2022-09-23T11:07:02.027Z,9.463041
2022-09-23T11:08:02.028Z,9.462968
2022-09-23T11:09:02.013Z,9.462908
2022-09-23T11:10:02.030Z,9.463017
2022-09-23T11:11:02.011Z,9.462921
2022-09-23T11:12:02.013Z,9.463023
2022-09-23T11:13:01.986Z,9.462947
2022-09-23T11:14:02.019Z,9.462982
2022-09-23T11:15:02.013Z,9.462984
2022-09-23T11:16:02.091Z,9.463002
2022-09-23T11:17:02.043Z,9.463021
2022-09-23T11:18:02.959Z,9.462981
2022-09-23T11:19:01.973Z,9.462989
2022-09-23T11:20:01.941Z,9.462974
2022-09-23T11:21:02.607Z,9.463038
2022-09-23T11:22:02.404Z,9.462998
2022-09-23T11:23:01.923Z,9.463044
2022-09-23T11:24:02.018Z,9.462982
2022-09-23T11:25:01.912Z,9.462971
2022-09-23T11:26:01.901Z,9.462989
2022-09-23T11:27:01.909Z,9.462992
2022-09-23T11:28:01.890Z,9.462984
2022-09-23T11:29:02.157Z,9.462976
2022-09-23T11:30:01.870Z,9.463019
2022-09-23T11:31:02.544Z,9.462989
2022-09-23T11:32:01.871Z,9.463007
2022-09-23T11:34:01.858Z,9.463028
2022-09-23T11:35:01.850Z,9.462995
2022-09-23T11:36:01.839Z,9.463059
2022-09-23T11:37:01.838Z,9.463028
2022-09-23T11:38:01.864Z,9.463075
2022-09-23T11:39:02.260Z,9.462976
2022-09-23T11:40:01.809Z,9.462928
2022-09-23T11:41:01.873Z,9.462988
2022-09-23T11:42:01.801Z,9.463072
2022-09-23T11:43:01.826Z,9.462991
2022-09-23T11:44:01.837Z,9.462996
2022-09-23T11:45:02.014Z,9.462960
2022-09-23T11:46:01.829Z,9.462986
2022-09-23T11:47:01.775Z,9.462984